sensor_id;sensor_type;location;lat;lon;timestamp;P1;durP1;ratioP1;P2;durP2;ratioP2
9801;SDS011;4940;50.900;4.672;2023-08-31T00:01:11;57.67;;;53.33;;
9801;SDS011;4940;50.900;4.672;2023-08-31T00:03:39;66.15;;;61.15;;
9801;SDS011;4940;50.900;4.672;2023-08-31T00:06:06;60.35;;;55.75;;
9801;SDS011;4940;50.900;4.672;2023-08-31T00:08:34;61.67;;;57.28;;
9801;SDS011;4940;50.900;4.672;2023-08-31T00:11:01;62.58;;;57.92;;
9801;SDS011;4940;50.900;4.672;2023-08-31T00:13:28;57.60;;;53.17;;
9801;SDS011;4940;50.900;4.672;2023-08-31T00:15:57;53.83;;;49.75;;
9801;SDS011;4940;50.900;4.672;2023-08-31T00:18:25;47.42;;;43.83;;
9801;SDS011;4940;50.900;4.672;2023-08-31T00:20:52;61.83;;;57.13;;
9801;SDS011;4940;50.900;4.672;2023-08-31T00:23:20;54.83;;;50.58;;
9801;SDS011;4940;50.900;4.672;2023-08-31T00:25:47;61.10;;;56.60;;
9801;SDS011;4940;50.900;4.672;2023-08-31T00:28:17;66.82;;;62.03;;
9801;SDS011;4940;50.900;4.672;2023-08-31T00:30:45;53.65;;;49.53;;
9801;SDS011;4940;50.900;4.672;2023-08-31T00:33:16;51.33;;;47.38;;
9801;SDS011;4940;50.900;4.672;2023-08-31T00:35:43;64.13;;;59.13;;
9801;SDS011;4940;50.900;4.672;2023-08-31T00:38:12;66.32;;;61.33;;
9801;SDS011;4940;50.900;4.672;2023-08-31T00:40:40;57.72;;;53.30;;
9801;SDS011;4940;50.900;4.672;2023-08-31T00:43:10;63.00;;;58.10;;
9801;SDS011;4940;50.900;4.672;2023-08-31T00:45:38;59.67;;;55.17;;
9801;SDS011;4940;50.900;4.672;2023-08-31T00:48:06;72.32;;;66.97;;
9801;SDS011;4940;50.900;4.672;2023-08-31T00:50:35;63.97;;;58.97;;
9801;SDS011;4940;50.900;4.672;2023-08-31T00:53:02;63.25;;;58.45;;
9801;SDS011;4940;50.900;4.672;2023-08-31T00:55:30;64.82;;;60.03;;
9801;SDS011;4940;50.900;4.672;2023-08-31T00:57:58;55.60;;;51.22;;
9801;SDS011;4940;50.900;4.672;2023-08-31T01:00:26;61.83;;;57.05;;
9801;SDS011;4940;50.900;4.672;2023-08-31T01:03:05;75.53;;;69.70;;
9801;SDS011;4940;50.900;4.672;2023-08-31T01:05:43;60.55;;;56.05;;
9801;SDS011;4940;50.900;4.672;2023-08-31T01:08:19;55.35;;;50.65;;
9801;SDS011;4940;50.900;4.672;2023-08-31T01:10:55;56.78;;;52.20;;
9801;SDS011;4940;50.900;4.672;2023-08-31T01:13:28;66.30;;;61.45;;
9801;SDS011;4940;50.900;4.672;2023-08-31T01:16:00;57.60;;;53.22;;
9801;SDS011;4940;50.900;4.672;2023-08-31T01:18:30;48.20;;;44.30;;
9801;SDS011;4940;50.900;4.672;2023-08-31T01:21:05;61.70;;;56.90;;
9801;SDS011;4940;50.900;4.672;2023-08-31T01:23:46;56.40;;;51.70;;
9801;SDS011;4940;50.900;4.672;2023-08-31T01:26:17;60.05;;;55.50;;
9801;SDS011;4940;50.900;4.672;2023-08-31T01:28:44;63.15;;;58.25;;
9801;SDS011;4940;50.900;4.672;2023-08-31T01:31:12;53.65;;;49.40;;
9801;SDS011;4940;50.900;4.672;2023-08-31T01:33:40;55.58;;;51.17;;
9801;SDS011;4940;50.900;4.672;2023-08-31T01:36:08;61.47;;;56.67;;
9801;SDS011;4940;50.900;4.672;2023-08-31T01:38:40;54.80;;;50.42;;
9801;SDS011;4940;50.900;4.672;2023-08-31T01:41:12;62.13;;;57.33;;
9801;SDS011;4940;50.900;4.672;2023-08-31T01:43:43;61.15;;;56.35;;
9801;SDS011;4940;50.900;4.672;2023-08-31T01:46:11;51.20;;;46.85;;
9801;SDS011;4940;50.900;4.672;2023-08-31T01:48:39;60.60;;;55.67;;
9801;SDS011;4940;50.900;4.672;2023-08-31T01:51:06;61.38;;;56.28;;
9801;SDS011;4940;50.900;4.672;2023-08-31T01:53:34;60.88;;;56.03;;
9801;SDS011;4940;50.900;4.672;2023-08-31T01:56:01;60.33;;;55.63;;
9801;SDS011;4940;50.900;4.672;2023-08-31T01:58:31;60.78;;;56.15;;
9801;SDS011;4940;50.900;4.672;2023-08-31T02:00:59;56.38;;;51.78;;
9801;SDS011;4940;50.900;4.672;2023-08-31T02:03:26;73.57;;;68.18;;
9801;SDS011;4940;50.900;4.672;2023-08-31T02:05:54;74.47;;;69.07;;
9801;SDS011;4940;50.900;4.672;2023-08-31T02:08:21;61.30;;;56.20;;
9801;SDS011;4940;50.900;4.672;2023-08-31T02:10:48;63.53;;;58.53;;
9801;SDS011;4940;50.900;4.672;2023-08-31T02:13:16;67.32;;;61.83;;
9801;SDS011;4940;50.900;4.672;2023-08-31T02:15:44;62.42;;;57.50;;
9801;SDS011;4940;50.900;4.672;2023-08-31T02:18:12;58.85;;;53.92;;
9801;SDS011;4940;50.900;4.672;2023-08-31T02:20:39;71.05;;;65.72;;
9801;SDS011;4940;50.900;4.672;2023-08-31T02:23:06;66.30;;;61.00;;
9801;SDS011;4940;50.900;4.672;2023-08-31T02:25:34;64.68;;;59.40;;
9801;SDS011;4940;50.900;4.672;2023-08-31T02:28:02;70.60;;;65.00;;
9801;SDS011;4940;50.900;4.672;2023-08-31T02:30:29;66.68;;;61.53;;
9801;SDS011;4940;50.900;4.672;2023-08-31T02:32:58;71.95;;;66.32;;
9801;SDS011;4940;50.900;4.672;2023-08-31T02:35:25;76.25;;;70.57;;
9801;SDS011;4940;50.900;4.672;2023-08-31T02:37:53;74.47;;;68.57;;
9801;SDS011;4940;50.900;4.672;2023-08-31T02:40:20;65.35;;;59.60;;
9801;SDS011;4940;50.900;4.672;2023-08-31T02:42:50;49.75;;;45.65;;
9801;SDS011;4940;50.900;4.672;2023-08-31T02:45:17;55.20;;;50.65;;
9801;SDS011;4940;50.900;4.672;2023-08-31T02:47:45;52.80;;;48.58;;
9801;SDS011;4940;50.900;4.672;2023-08-31T02:50:16;60.17;;;55.15;;
9801;SDS011;4940;50.900;4.672;2023-08-31T02:52:44;72.10;;;66.38;;
9801;SDS011;4940;50.900;4.672;2023-08-31T02:55:11;68.00;;;62.40;;
9801;SDS011;4940;50.900;4.672;2023-08-31T02:57:38;67.97;;;62.67;;
9801;SDS011;4940;50.900;4.672;2023-08-31T03:00:06;73.95;;;68.35;;
9801;SDS011;4940;50.900;4.672;2023-08-31T03:02:38;70.78;;;65.35;;
9801;SDS011;4940;50.900;4.672;2023-08-31T03:05:05;56.03;;;51.33;;
9801;SDS011;4940;50.900;4.672;2023-08-31T03:07:35;62.03;;;56.97;;
9801;SDS011;4940;50.900;4.672;2023-08-31T03:10:02;57.67;;;52.78;;
9801;SDS011;4940;50.900;4.672;2023-08-31T03:12:29;60.25;;;55.55;;
9801;SDS011;4940;50.900;4.672;2023-08-31T03:14:57;64.70;;;59.53;;
9801;SDS011;4940;50.900;4.672;2023-08-31T03:17:24;58.45;;;53.40;;
9801;SDS011;4940;50.900;4.672;2023-08-31T03:19:52;60.08;;;55.13;;
9801;SDS011;4940;50.900;4.672;2023-08-31T03:22:19;52.97;;;48.58;;
9801;SDS011;4940;50.900;4.672;2023-08-31T03:24:48;60.28;;;55.28;;
9801;SDS011;4940;50.900;4.672;2023-08-31T03:27:15;53.63;;;49.33;;
9801;SDS011;4940;50.900;4.672;2023-08-31T03:29:43;56.88;;;52.45;;
9801;SDS011;4940;50.900;4.672;2023-08-31T03:32:11;61.50;;;56.50;;
9801;SDS011;4940;50.900;4.672;2023-08-31T03:34:38;55.28;;;50.53;;
9801;SDS011;4940;50.900;4.672;2023-08-31T03:37:06;55.60;;;50.88;;
9801;SDS011;4940;50.900;4.672;2023-08-31T03:39:34;52.00;;;47.53;;
9801;SDS011;4940;50.900;4.672;2023-08-31T03:42:03;54.47;;;49.75;;
9801;SDS011;4940;50.900;4.672;2023-08-31T03:44:31;54.85;;;50.20;;
9801;SDS011;4940;50.900;4.672;2023-08-31T03:46:58;57.28;;;52.72;;
9801;SDS011;4940;50.900;4.672;2023-08-31T03:49:26;55.95;;;51.25;;
9801;SDS011;4940;50.900;4.672;2023-08-31T03:51:53;58.88;;;54.15;;
9801;SDS011;4940;50.900;4.672;2023-08-31T03:54:20;52.65;;;48.22;;
9801;SDS011;4940;50.900;4.672;2023-08-31T03:56:48;49.75;;;45.85;;
9801;SDS011;4940;50.900;4.672;2023-08-31T03:59:17;47.67;;;43.28;;
9801;SDS011;4940;50.900;4.672;2023-08-31T04:01:45;43.25;;;39.28;;
9801;SDS011;4940;50.900;4.672;2023-08-31T04:04:12;59.20;;;54.40;;
9801;SDS011;4940;50.900;4.672;2023-08-31T04:06:39;58.20;;;53.60;;
9801;SDS011;4940;50.900;4.672;2023-08-31T04:09:07;44.65;;;40.88;;
9801;SDS011;4940;50.900;4.672;2023-08-31T04:11:34;53.80;;;49.05;;
9801;SDS011;4940;50.900;4.672;2023-08-31T04:14:01;50.75;;;46.35;;
9801;SDS011;4940;50.900;4.672;2023-08-31T04:16:31;53.35;;;48.63;;
9801;SDS011;4940;50.900;4.672;2023-08-31T04:18:58;55.15;;;50.47;;
9801;SDS011;4940;50.900;4.672;2023-08-31T04:21:26;51.25;;;47.05;;
9801;SDS011;4940;50.900;4.672;2023-08-31T04:23:53;49.30;;;45.05;;
9801;SDS011;4940;50.900;4.672;2023-08-31T04:26:20;51.63;;;47.22;;
9801;SDS011;4940;50.900;4.672;2023-08-31T04:28:49;57.38;;;52.60;;
9801;SDS011;4940;50.900;4.672;2023-08-31T04:31:16;60.47;;;55.88;;
9801;SDS011;4940;50.900;4.672;2023-08-31T04:33:45;52.53;;;48.13;;
9801;SDS011;4940;50.900;4.672;2023-08-31T04:36:13;56.78;;;51.97;;
9801;SDS011;4940;50.900;4.672;2023-08-31T04:38:41;57.15;;;52.75;;
9801;SDS011;4940;50.900;4.672;2023-08-31T04:41:08;56.03;;;51.63;;
9801;SDS011;4940;50.900;4.672;2023-08-31T04:43:36;47.63;;;43.50;;
9801;SDS011;4940;50.900;4.672;2023-08-31T04:46:04;53.30;;;48.90;;
9801;SDS011;4940;50.900;4.672;2023-08-31T04:48:32;54.25;;;49.97;;
9801;SDS011;4940;50.900;4.672;2023-08-31T04:51:00;55.90;;;51.42;;
9801;SDS011;4940;50.900;4.672;2023-08-31T04:53:29;55.55;;;51.08;;
9801;SDS011;4940;50.900;4.672;2023-08-31T04:55:56;55.42;;;50.95;;
9801;SDS011;4940;50.900;4.672;2023-08-31T04:58:23;45.38;;;41.47;;
9801;SDS011;4940;50.900;4.672;2023-08-31T05:00:51;37.50;;;33.95;;
9801;SDS011;4940;50.900;4.672;2023-08-31T05:03:18;37.45;;;33.78;;
9801;SDS011;4940;50.900;4.672;2023-08-31T05:05:46;36.15;;;32.92;;
9801;SDS011;4940;50.900;4.672;2023-08-31T05:08:14;38.17;;;34.45;;
9801;SDS011;4940;50.900;4.672;2023-08-31T05:10:42;36.90;;;33.53;;
9801;SDS011;4940;50.900;4.672;2023-08-31T05:13:11;38.95;;;35.55;;
9801;SDS011;4940;50.900;4.672;2023-08-31T05:15:38;46.65;;;42.65;;
9801;SDS011;4940;50.900;4.672;2023-08-31T05:18:06;40.08;;;36.38;;
9801;SDS011;4940;50.900;4.672;2023-08-31T05:20:34;45.60;;;41.60;;
9801;SDS011;4940;50.900;4.672;2023-08-31T05:23:01;46.60;;;42.35;;
9801;SDS011;4940;50.900;4.672;2023-08-31T05:25:30;42.22;;;38.33;;
9801;SDS011;4940;50.900;4.672;2023-08-31T05:27:57;40.45;;;36.70;;
9801;SDS011;4940;50.900;4.672;2023-08-31T05:30:25;47.75;;;43.58;;
9801;SDS011;4940;50.900;4.672;2023-08-31T05:32:53;43.20;;;39.38;;
9801;SDS011;4940;50.900;4.672;2023-08-31T05:35:20;41.53;;;37.50;;
9801;SDS011;4940;50.900;4.672;2023-08-31T05:37:48;42.35;;;38.75;;
9801;SDS011;4940;50.900;4.672;2023-08-31T05:40:15;49.88;;;45.72;;
9801;SDS011;4940;50.900;4.672;2023-08-31T05:42:44;42.08;;;38.03;;
9801;SDS011;4940;50.900;4.672;2023-08-31T05:45:12;43.15;;;39.33;;
9801;SDS011;4940;50.900;4.672;2023-08-31T05:47:40;43.40;;;39.45;;
9801;SDS011;4940;50.900;4.672;2023-08-31T05:50:08;42.72;;;38.83;;
9801;SDS011;4940;50.900;4.672;2023-08-31T05:52:35;40.88;;;36.88;;
9801;SDS011;4940;50.900;4.672;2023-08-31T05:55:03;42.15;;;38.28;;
9801;SDS011;4940;50.900;4.672;2023-08-31T05:57:32;47.53;;;43.42;;
9801;SDS011;4940;50.900;4.672;2023-08-31T06:00:01;42.38;;;38.53;;
9801;SDS011;4940;50.900;4.672;2023-08-31T06:02:29;45.35;;;41.17;;
9801;SDS011;4940;50.900;4.672;2023-08-31T06:04:56;45.40;;;41.42;;
9801;SDS011;4940;50.900;4.672;2023-08-31T06:07:23;41.75;;;38.05;;
9801;SDS011;4940;50.900;4.672;2023-08-31T06:09:51;42.00;;;38.20;;
9801;SDS011;4940;50.900;4.672;2023-08-31T06:12:18;42.95;;;39.15;;
9801;SDS011;4940;50.900;4.672;2023-08-31T06:14:45;45.00;;;40.95;;
9801;SDS011;4940;50.900;4.672;2023-08-31T06:17:14;43.65;;;39.72;;
9801;SDS011;4940;50.900;4.672;2023-08-31T06:19:41;44.42;;;40.42;;
9801;SDS011;4940;50.900;4.672;2023-08-31T06:22:09;42.47;;;38.63;;
9801;SDS011;4940;50.900;4.672;2023-08-31T06:24:37;43.38;;;39.13;;
9801;SDS011;4940;50.900;4.672;2023-08-31T06:27:05;44.35;;;40.22;;
9801;SDS011;4940;50.900;4.672;2023-08-31T06:29:32;43.78;;;39.40;;
9801;SDS011;4940;50.900;4.672;2023-08-31T06:31:59;46.05;;;41.95;;
9801;SDS011;4940;50.900;4.672;2023-08-31T06:34:28;44.20;;;39.90;;
9801;SDS011;4940;50.900;4.672;2023-08-31T06:36:56;43.20;;;39.20;;
9801;SDS011;4940;50.900;4.672;2023-08-31T06:39:24;52.28;;;47.72;;
9801;SDS011;4940;50.900;4.672;2023-08-31T06:41:52;50.83;;;45.95;;
9801;SDS011;4940;50.900;4.672;2023-08-31T06:44:19;43.38;;;39.28;;
9801;SDS011;4940;50.900;4.672;2023-08-31T06:46:46;45.10;;;41.00;;
9801;SDS011;4940;50.900;4.672;2023-08-31T06:49:14;45.90;;;41.90;;
9801;SDS011;4940;50.900;4.672;2023-08-31T06:51:42;47.97;;;43.78;;
9801;SDS011;4940;50.900;4.672;2023-08-31T06:54:10;47.80;;;43.20;;
9801;SDS011;4940;50.900;4.672;2023-08-31T06:56:37;43.85;;;39.70;;
9801;SDS011;4940;50.900;4.672;2023-08-31T06:59:05;45.00;;;40.50;;
9801;SDS011;4940;50.900;4.672;2023-08-31T07:01:32;47.72;;;43.22;;
9801;SDS011;4940;50.900;4.672;2023-08-31T07:04:00;46.63;;;42.53;;
9801;SDS011;4940;50.900;4.672;2023-08-31T07:06:27;42.38;;;38.25;;
9801;SDS011;4940;50.900;4.672;2023-08-31T07:08:56;45.03;;;40.95;;
9801;SDS011;4940;50.900;4.672;2023-08-31T07:11:23;40.92;;;36.88;;
9801;SDS011;4940;50.900;4.672;2023-08-31T07:13:52;45.28;;;41.45;;
9801;SDS011;4940;50.900;4.672;2023-08-31T07:16:19;43.80;;;39.78;;
9801;SDS011;4940;50.900;4.672;2023-08-31T07:18:47;40.95;;;37.08;;
9801;SDS011;4940;50.900;4.672;2023-08-31T07:21:14;40.83;;;36.95;;
9801;SDS011;4940;50.900;4.672;2023-08-31T07:23:42;41.70;;;37.70;;
9801;SDS011;4940;50.900;4.672;2023-08-31T07:26:10;40.10;;;36.55;;
9801;SDS011;4940;50.900;4.672;2023-08-31T07:28:37;40.10;;;36.50;;
9801;SDS011;4940;50.900;4.672;2023-08-31T07:31:05;41.42;;;37.80;;
9801;SDS011;4940;50.900;4.672;2023-08-31T07:33:33;41.35;;;37.60;;
9801;SDS011;4940;50.900;4.672;2023-08-31T07:36:01;40.05;;;36.42;;
9801;SDS011;4940;50.900;4.672;2023-08-31T07:38:30;44.30;;;40.10;;
9801;SDS011;4940;50.900;4.672;2023-08-31T07:40:58;42.28;;;38.22;;
9801;SDS011;4940;50.900;4.672;2023-08-31T07:43:27;42.97;;;38.80;;
9801;SDS011;4940;50.900;4.672;2023-08-31T07:45:55;40.17;;;36.67;;
9801;SDS011;4940;50.900;4.672;2023-08-31T07:48:22;35.13;;;32.25;;
9801;SDS011;4940;50.900;4.672;2023-08-31T07:50:49;18.55;;;16.95;;
9801;SDS011;4940;50.900;4.672;2023-08-31T07:53:17;6.63;;;5.63;;
9801;SDS011;4940;50.900;4.672;2023-08-31T07:55:54;5.47;;;2.53;;
9801;SDS011;4940;50.900;4.672;2023-08-31T07:58:22;4.55;;;2.15;;
9801;SDS011;4940;50.900;4.672;2023-08-31T08:00:53;6.80;;;3.20;;
9801;SDS011;4940;50.900;4.672;2023-08-31T08:03:21;6.43;;;1.80;;
9801;SDS011;4940;50.900;4.672;2023-08-31T08:05:48;8.15;;;2.50;;
9801;SDS011;4940;50.900;4.672;2023-08-31T08:08:16;3.83;;;2.03;;
9801;SDS011;4940;50.900;4.672;2023-08-31T08:10:43;7.05;;;1.90;;
9801;SDS011;4940;50.900;4.672;2023-08-31T08:13:11;3.13;;;1.80;;
9801;SDS011;4940;50.900;4.672;2023-08-31T08:15:39;4.32;;;1.95;;
9801;SDS011;4940;50.900;4.672;2023-08-31T08:18:08;2.95;;;1.90;;
9801;SDS011;4940;50.900;4.672;2023-08-31T08:20:36;6.03;;;2.30;;
9801;SDS011;4940;50.900;4.672;2023-08-31T08:23:04;4.10;;;1.80;;
9801;SDS011;4940;50.900;4.672;2023-08-31T08:25:32;5.60;;;2.03;;
9801;SDS011;4940;50.900;4.672;2023-08-31T08:27:59;4.45;;;1.85;;
9801;SDS011;4940;50.900;4.672;2023-08-31T08:30:27;3.45;;;1.95;;
9801;SDS011;4940;50.900;4.672;2023-08-31T08:32:55;3.83;;;1.83;;
9801;SDS011;4940;50.900;4.672;2023-08-31T08:35:24;3.90;;;1.48;;
9801;SDS011;4940;50.900;4.672;2023-08-31T08:37:51;2.97;;;1.85;;
9801;SDS011;4940;50.900;4.672;2023-08-31T08:40:19;5.88;;;2.03;;
9801;SDS011;4940;50.900;4.672;2023-08-31T08:42:46;4.15;;;1.95;;
9801;SDS011;4940;50.900;4.672;2023-08-31T08:45:14;3.05;;;1.90;;
9801;SDS011;4940;50.900;4.672;2023-08-31T08:47:42;4.53;;;2.05;;
9801;SDS011;4940;50.900;4.672;2023-08-31T08:50:10;6.05;;;2.00;;
9801;SDS011;4940;50.900;4.672;2023-08-31T08:52:40;2.05;;;1.77;;
9801;SDS011;4940;50.900;4.672;2023-08-31T08:55:08;7.57;;;2.10;;
9801;SDS011;4940;50.900;4.672;2023-08-31T08:57:36;3.97;;;1.95;;
9801;SDS011;4940;50.900;4.672;2023-08-31T09:00:04;2.63;;;1.88;;
9801;SDS011;4940;50.900;4.672;2023-08-31T09:02:32;3.10;;;2.00;;
9801;SDS011;4940;50.900;4.672;2023-08-31T09:05:00;3.60;;;2.10;;
9801;SDS011;4940;50.900;4.672;2023-08-31T09:07:29;5.28;;;2.00;;
9801;SDS011;4940;50.900;4.672;2023-08-31T09:10:02;3.58;;;2.22;;
9801;SDS011;4940;50.900;4.672;2023-08-31T09:12:30;2.70;;;1.83;;
9801;SDS011;4940;50.900;4.672;2023-08-31T09:14:58;7.03;;;2.45;;
9801;SDS011;4940;50.900;4.672;2023-08-31T09:17:25;2.33;;;1.98;;
9801;SDS011;4940;50.900;4.672;2023-08-31T09:20:04;4.05;;;2.15;;
9801;SDS011;4940;50.900;4.672;2023-08-31T09:22:32;5.63;;;2.30;;
9801;SDS011;4940;50.900;4.672;2023-08-31T09:25:01;2.70;;;1.90;;
9801;SDS011;4940;50.900;4.672;2023-08-31T09:27:29;3.58;;;2.00;;
9801;SDS011;4940;50.900;4.672;2023-08-31T09:29:58;5.35;;;2.08;;
9801;SDS011;4940;50.900;4.672;2023-08-31T09:32:25;4.32;;;2.15;;
9801;SDS011;4940;50.900;4.672;2023-08-31T09:34:53;3.85;;;2.42;;
9801;SDS011;4940;50.900;4.672;2023-08-31T09:37:20;4.82;;;2.30;;
9801;SDS011;4940;50.900;4.672;2023-08-31T09:39:48;2.75;;;2.17;;
9801;SDS011;4940;50.900;4.672;2023-08-31T09:42:16;6.32;;;2.70;;
9801;SDS011;4940;50.900;4.672;2023-08-31T09:44:44;3.35;;;2.22;;
9801;SDS011;4940;50.900;4.672;2023-08-31T09:47:12;3.83;;;2.38;;
9801;SDS011;4940;50.900;4.672;2023-08-31T09:49:41;5.63;;;2.28;;
9801;SDS011;4940;50.900;4.672;2023-08-31T09:52:09;5.35;;;2.10;;
9801;SDS011;4940;50.900;4.672;2023-08-31T09:54:37;2.80;;;1.92;;
9801;SDS011;4940;50.900;4.672;2023-08-31T09:57:05;2.88;;;2.15;;
9801;SDS011;4940;50.900;4.672;2023-08-31T09:59:34;3.70;;;2.10;;
9801;SDS011;4940;50.900;4.672;2023-08-31T10:02:02;2.20;;;1.90;;
9801;SDS011;4940;50.900;4.672;2023-08-31T10:04:29;3.17;;;2.40;;
9801;SDS011;4940;50.900;4.672;2023-08-31T10:06:59;2.78;;;2.30;;
9801;SDS011;4940;50.900;4.672;2023-08-31T10:09:26;3.47;;;2.22;;
9801;SDS011;4940;50.900;4.672;2023-08-31T10:11:54;3.95;;;2.13;;
9801;SDS011;4940;50.900;4.672;2023-08-31T10:14:23;3.85;;;2.00;;
9801;SDS011;4940;50.900;4.672;2023-08-31T10:16:52;2.45;;;1.90;;
9801;SDS011;4940;50.900;4.672;2023-08-31T10:19:22;2.63;;;1.95;;
9801;SDS011;4940;50.900;4.672;2023-08-31T10:21:49;4.25;;;2.13;;
9801;SDS011;4940;50.900;4.672;2023-08-31T10:24:16;3.13;;;2.25;;
9801;SDS011;4940;50.900;4.672;2023-08-31T10:26:44;7.50;;;2.35;;
9801;SDS011;4940;50.900;4.672;2023-08-31T10:29:25;7.20;;;2.17;;
9801;SDS011;4940;50.900;4.672;2023-08-31T10:31:55;5.43;;;2.13;;
9801;SDS011;4940;50.900;4.672;2023-08-31T10:34:35;3.65;;;2.42;;
9801;SDS011;4940;50.900;4.672;2023-08-31T10:37:03;5.15;;;2.05;;
9801;SDS011;4940;50.900;4.672;2023-08-31T10:39:46;2.83;;;1.95;;
9801;SDS011;4940;50.900;4.672;2023-08-31T10:42:14;2.58;;;1.70;;
9801;SDS011;4940;50.900;4.672;2023-08-31T10:44:41;2.28;;;1.90;;
9801;SDS011;4940;50.900;4.672;2023-08-31T10:47:11;6.90;;;1.95;;
9801;SDS011;4940;50.900;4.672;2023-08-31T10:49:38;3.90;;;1.80;;
9801;SDS011;4940;50.900;4.672;2023-08-31T10:52:18;3.67;;;1.90;;
9801;SDS011;4940;50.900;4.672;2023-08-31T10:54:46;2.60;;;1.60;;
9801;SDS011;4940;50.900;4.672;2023-08-31T10:57:13;3.65;;;2.00;;
9801;SDS011;4940;50.900;4.672;2023-08-31T10:59:45;5.00;;;1.85;;
9801;SDS011;4940;50.900;4.672;2023-08-31T11:02:28;3.95;;;1.90;;
9801;SDS011;4940;50.900;4.672;2023-08-31T11:04:59;4.53;;;1.90;;
9801;SDS011;4940;50.900;4.672;2023-08-31T11:07:29;4.18;;;1.83;;
9801;SDS011;4940;50.900;4.672;2023-08-31T11:10:13;2.45;;;1.60;;
9801;SDS011;4940;50.900;4.672;2023-08-31T11:12:42;3.97;;;2.00;;
9801;SDS011;4940;50.900;4.672;2023-08-31T11:15:11;3.28;;;2.00;;
9801;SDS011;4940;50.900;4.672;2023-08-31T11:17:41;3.17;;;1.75;;
9801;SDS011;4940;50.900;4.672;2023-08-31T11:20:13;3.05;;;2.17;;
9801;SDS011;4940;50.900;4.672;2023-08-31T11:22:42;2.70;;;1.73;;
9801;SDS011;4940;50.900;4.672;2023-08-31T11:25:12;2.47;;;2.05;;
9801;SDS011;4940;50.900;4.672;2023-08-31T11:27:39;3.55;;;1.75;;
9801;SDS011;4940;50.900;4.672;2023-08-31T11:30:16;4.45;;;1.83;;
9801;SDS011;4940;50.900;4.672;2023-08-31T11:32:47;4.50;;;2.10;;
9801;SDS011;4940;50.900;4.672;2023-08-31T11:35:15;4.47;;;1.75;;
9801;SDS011;4940;50.900;4.672;2023-08-31T11:37:43;4.78;;;1.77;;
9801;SDS011;4940;50.900;4.672;2023-08-31T11:40:12;2.92;;;1.30;;
9801;SDS011;4940;50.900;4.672;2023-08-31T11:42:40;4.65;;;1.80;;
9801;SDS011;4940;50.900;4.672;2023-08-31T11:45:08;2.97;;;1.75;;
9801;SDS011;4940;50.900;4.672;2023-08-31T11:47:37;3.15;;;1.52;;
9801;SDS011;4940;50.900;4.672;2023-08-31T11:50:07;5.18;;;1.80;;
9801;SDS011;4940;50.900;4.672;2023-08-31T11:52:35;3.95;;;1.70;;
9801;SDS011;4940;50.900;4.672;2023-08-31T11:55:08;2.63;;;1.50;;
9801;SDS011;4940;50.900;4.672;2023-08-31T11:57:37;6.45;;;1.88;;
9801;SDS011;4940;50.900;4.672;2023-08-31T12:00:05;2.15;;;1.50;;
9801;SDS011;4940;50.900;4.672;2023-08-31T12:02:36;2.40;;;1.50;;
9801;SDS011;4940;50.900;4.672;2023-08-31T12:05:03;3.75;;;1.95;;
9801;SDS011;4940;50.900;4.672;2023-08-31T12:07:32;2.72;;;1.58;;
9801;SDS011;4940;50.900;4.672;2023-08-31T12:10:07;3.28;;;1.50;;
9801;SDS011;4940;50.900;4.672;2023-08-31T12:12:35;3.33;;;1.58;;
9801;SDS011;4940;50.900;4.672;2023-08-31T12:15:03;4.00;;;1.48;;
9801;SDS011;4940;50.900;4.672;2023-08-31T12:17:31;2.85;;;1.38;;
9801;SDS011;4940;50.900;4.672;2023-08-31T12:20:02;2.35;;;1.67;;
9801;SDS011;4940;50.900;4.672;2023-08-31T12:22:33;4.15;;;1.67;;
9801;SDS011;4940;50.900;4.672;2023-08-31T12:25:00;6.03;;;1.52;;
9801;SDS011;4940;50.900;4.672;2023-08-31T12:27:28;5.47;;;1.50;;
9801;SDS011;4940;50.900;4.672;2023-08-31T12:29:56;2.95;;;1.27;;
9801;SDS011;4940;50.900;4.672;2023-08-31T12:32:24;3.40;;;1.50;;
9801;SDS011;4940;50.900;4.672;2023-08-31T12:34:51;2.28;;;1.42;;
9801;SDS011;4940;50.900;4.672;2023-08-31T12:37:18;2.00;;;1.50;;
9801;SDS011;4940;50.900;4.672;2023-08-31T12:39:47;3.47;;;1.40;;
9801;SDS011;4940;50.900;4.672;2023-08-31T12:42:14;1.85;;;1.50;;
9801;SDS011;4940;50.900;4.672;2023-08-31T12:44:41;3.83;;;1.52;;
9801;SDS011;4940;50.900;4.672;2023-08-31T12:47:08;3.58;;;1.70;;
9801;SDS011;4940;50.900;4.672;2023-08-31T12:49:36;4.43;;;1.50;;
9801;SDS011;4940;50.900;4.672;2023-08-31T12:52:03;1.98;;;1.60;;
9801;SDS011;4940;50.900;4.672;2023-08-31T12:54:31;2.80;;;1.50;;
9801;SDS011;4940;50.900;4.672;2023-08-31T12:57:00;2.22;;;1.48;;
9801;SDS011;4940;50.900;4.672;2023-08-31T12:59:27;4.53;;;1.60;;
9801;SDS011;4940;50.900;4.672;2023-08-31T13:01:55;4.32;;;2.38;;
9801;SDS011;4940;50.900;4.672;2023-08-31T13:04:22;4.30;;;1.40;;
9801;SDS011;4940;50.900;4.672;2023-08-31T13:06:50;1.95;;;1.42;;
9801;SDS011;4940;50.900;4.672;2023-08-31T13:09:17;4.90;;;1.60;;
9801;SDS011;4940;50.900;4.672;2023-08-31T13:11:44;3.20;;;1.50;;
9801;SDS011;4940;50.900;4.672;2023-08-31T13:14:13;3.95;;;1.48;;
9801;SDS011;4940;50.900;4.672;2023-08-31T13:16:41;3.30;;;1.52;;
9801;SDS011;4940;50.900;4.672;2023-08-31T13:19:08;3.63;;;1.10;;
9801;SDS011;4940;50.900;4.672;2023-08-31T13:21:35;2.45;;;1.30;;
9801;SDS011;4940;50.900;4.672;2023-08-31T13:24:03;1.60;;;1.33;;
9801;SDS011;4940;50.900;4.672;2023-08-31T13:26:30;3.03;;;1.40;;
9801;SDS011;4940;50.900;4.672;2023-08-31T13:28:58;4.22;;;1.20;;
9801;SDS011;4940;50.900;4.672;2023-08-31T13:31:27;4.13;;;1.50;;
9801;SDS011;4940;50.900;4.672;2023-08-31T13:33:55;3.63;;;1.45;;
9801;SDS011;4940;50.900;4.672;2023-08-31T13:36:22;4.22;;;1.58;;
9801;SDS011;4940;50.900;4.672;2023-08-31T13:38:49;2.83;;;1.20;;
9801;SDS011;4940;50.900;4.672;2023-08-31T13:41:17;5.45;;;1.52;;
9801;SDS011;4940;50.900;4.672;2023-08-31T13:43:44;3.40;;;1.42;;
9801;SDS011;4940;50.900;4.672;2023-08-31T13:46:11;2.28;;;1.38;;
9801;SDS011;4940;50.900;4.672;2023-08-31T13:48:40;2.22;;;1.48;;
9801;SDS011;4940;50.900;4.672;2023-08-31T13:51:07;2.40;;;1.60;;
9801;SDS011;4940;50.900;4.672;2023-08-31T13:53:35;7.03;;;1.63;;
9801;SDS011;4940;50.900;4.672;2023-08-31T13:56:02;2.83;;;1.50;;
9801;SDS011;4940;50.900;4.672;2023-08-31T13:58:30;7.07;;;1.73;;
9801;SDS011;4940;50.900;4.672;2023-08-31T14:00:57;3.53;;;1.63;;
9801;SDS011;4940;50.900;4.672;2023-08-31T14:03:28;3.60;;;1.45;;
9801;SDS011;4940;50.900;4.672;2023-08-31T14:05:57;4.70;;;1.67;;
9801;SDS011;4940;50.900;4.672;2023-08-31T14:08:24;6.63;;;1.33;;
9801;SDS011;4940;50.900;4.672;2023-08-31T14:10:52;1.65;;;1.48;;
9801;SDS011;4940;50.900;4.672;2023-08-31T14:13:21;2.45;;;1.20;;
9801;SDS011;4940;50.900;4.672;2023-08-31T14:15:48;4.85;;;1.70;;
9801;SDS011;4940;50.900;4.672;2023-08-31T14:18:15;1.92;;;1.33;;
9801;SDS011;4940;50.900;4.672;2023-08-31T14:20:43;2.20;;;1.67;;
9801;SDS011;4940;50.900;4.672;2023-08-31T14:23:11;2.33;;;1.30;;
9801;SDS011;4940;50.900;4.672;2023-08-31T14:25:39;2.13;;;1.23;;
9801;SDS011;4940;50.900;4.672;2023-08-31T14:28:06;2.45;;;1.70;;
9801;SDS011;4940;50.900;4.672;2023-08-31T14:30:34;3.95;;;1.50;;
9801;SDS011;4940;50.900;4.672;2023-08-31T14:33:02;2.90;;;1.35;;
9801;SDS011;4940;50.900;4.672;2023-08-31T14:35:30;4.38;;;1.83;;
9801;SDS011;4940;50.900;4.672;2023-08-31T14:37:57;3.78;;;1.70;;
9801;SDS011;4940;50.900;4.672;2023-08-31T14:40:26;3.13;;;1.80;;
9801;SDS011;4940;50.900;4.672;2023-08-31T14:42:54;2.80;;;1.42;;
9801;SDS011;4940;50.900;4.672;2023-08-31T14:45:21;6.32;;;2.00;;
9801;SDS011;4940;50.900;4.672;2023-08-31T14:47:48;3.45;;;1.90;;
9801;SDS011;4940;50.900;4.672;2023-08-31T14:50:16;5.78;;;1.88;;
9801;SDS011;4940;50.900;4.672;2023-08-31T14:52:43;1.77;;;1.58;;
9801;SDS011;4940;50.900;4.672;2023-08-31T14:55:11;4.13;;;1.95;;
9801;SDS011;4940;50.900;4.672;2023-08-31T14:57:39;4.22;;;2.08;;
9801;SDS011;4940;50.900;4.672;2023-08-31T15:00:08;4.90;;;1.77;;
9801;SDS011;4940;50.900;4.672;2023-08-31T15:02:36;2.85;;;1.75;;
9801;SDS011;4940;50.900;4.672;2023-08-31T15:05:03;3.75;;;2.03;;
9801;SDS011;4940;50.900;4.672;2023-08-31T15:07:31;4.20;;;1.52;;